Palm Bay, FL (32907)

11:20 AM EST on February 14, 2016 (GMT -0500)
Lockmar | | Change Station
CLOSE
Current Station
Personal Weather Station
Location: Palm Bay, FL
Elevation: 49 ft
Nearby Weather Stations

Elev 49 ft 28.03 °N, 80.67 °W | Updated 10 seconds ago

Partly Cloudy
Partly Cloudy
67.0 °F
Feels Like 67.0 °F
N
5.0
Wind Variable Wind from ENE
Gusts 14.0 mph

Today
High -- | Low -- °F
--% Chance of Precip.
Yesterday
High -- | Low -- °F
Precip. -- in
Pressure 30.29 in
Visibility 10.0 miles
Clouds Scattered Clouds 3200 ft
Dew Point 54 °F
Humidity 62%
Rainfall 0.00 in
Snow Depth Not available.
7:01 AM 6:12 PM
Waxing Crescent, 43% visible
METAR KMLB 141553Z 05009KT 10SM SCT032 20/09 A3029 RMK AO2 SLP256 T02000094
Pressure 30.29 in
Visibility 10.0 miles
Clouds Scattered Clouds 3200 ft
Dew Point 54 °F
Humidity 62%
Rainfall 0.00 in
Snow Depth Not available.
7:01 AM 6:12 PM
Waxing Crescent, 43% visible
METAR KMLB 141553Z 05009KT 10SM SCT032 20/09 A3029 RMK AO2 SLP256 T02000094

10-Day Weather Forecast

Almanac

Astronomy

Feb. 14, 2016 Rise Set
Actual Time
Civil Twilight
Nautical Twilight
Astronomical Twilight
Moon
Length of Visible Light
Length of Day
Tomorrow will be .
, % of the Moon is Illuminated

Today's Extremes

State Highs State Lows

Community

WunderPhotos

Upload Photos

1,892,828 photos uploaded!

WunderBlog® & News

Nearby

Air Quality

  Air Quality AQ Index Pollutant
Not available.

Snow Depth

Station Depth Elevation

Earthquake Activity

City Distance Mag. Time & Date
Minimum magnitude displayed is 2.5.

Coastal Water Temperatures

Place Temperature

Stations

Nearby Weather Stations

Station Location Temp. Windchill Dew Point Humidity Wind Precip. Elev Updated Type
                   

Watches & Warnings

There are currently no watches in effect.